Time;durP1;ratioP1;P1;durP2;ratioP2;P2;SDS_P1;SDS_P2;PMS_P1;PMS_P2;Temp;Humidity;BMP_temperature;BMP_pressure;BME280_temperature;BME280_humidity;BME280_pressure;Samples;Min_cycle;Max_cycle;Signal;HPM_P1;HPM_P2
2022/04/09 00:01:35;;;;;;;4.32;2.65;;;;;;;15.04;40.51;96659.72;10293602;28;20650;-62
2022/04/09 00:06:34;;;;;;;3.80;2.47;;;;;;;15.18;40.59;96687.97;10287880;28;20495;-61
2022/04/09 00:11:33;;;;;;;4.72;2.72;;;;;;;15.35;41.17;96737.00;10293656;28;20416;-61
2022/04/09 00:16:32;;;;;;;7.47;2.38;;;;;;;14.46;41.10;96612.16;10293745;28;20030;-61
2022/04/09 00:21:32;;;;;;;3.92;2.67;;;;;;;14.76;41.52;96692.03;10293009;28;20065;-61
2022/04/09 00:26:31;;;;;;;;;;;;;;;14.97;41.81;96747.06;10293177;28;20454;-61
2022/04/09 00:31:30;;;;;;;8.07;3.70;;;;;;;14.59;41.77;96700.44;10293462;28;20374;-61
2022/04/09 00:36:29;;;;;;;4.07;3.00;;;;;;;14.61;42.48;96739.53;10285334;28;20100;-61
2022/04/09 00:41:28;;;;;;;4.38;2.38;;;;;;;13.80;42.98;96628.25;10292578;28;20480;-61
2022/04/09 00:46:27;;;;;;;6.28;2.63;;;;;;;13.82;42.78;96622.97;10292741;28;20062;-61
2022/04/09 00:51:25;;;;;;;8.93;3.10;;;;;;;14.20;43.70;96723.47;10291533;28;20050;-61
2022/04/09 00:56:25;;;;;;;4.97;2.70;;;;;;;13.91;43.19;96680.91;10292172;28;20037;-61
2022/04/09 01:01:27;;;;;;;6.65;2.42;;;;;;;14.29;43.61;96743.19;10291592;28;20084;-61
2022/04/09 01:06:26;;;;;;;3.30;2.17;;;;;;;14.08;43.49;96718.66;10284281;28;20595;-61
2022/04/09 01:11:25;;;;;;;6.45;2.38;;;;;;;13.47;43.23;96589.28;10291476;28;20502;-61
2022/04/09 01:16:28;;;;;;;8.02;2.78;;;;;;;14.26;43.27;96733.69;10291465;28;20460;-61
2022/04/09 01:21:28;;;;;;;7.90;2.95;;;;;;;14.23;43.67;96730.34;10290574;28;20377;-61
2022/04/09 01:26:28;;;;;;;8.68;3.20;;;;;;;14.10;43.75;96719.44;10290628;28;20057;-61
2022/04/09 01:31:26;;;;;;;4.95;2.40;;;;;;;13.73;43.51;96665.84;10291171;28;20064;-61
2022/04/09 01:36:25;;;;;;;7.30;3.30;;;;;;;13.54;44.11;96645.53;10282530;28;20045;-61
2022/04/09 01:41:24;;;;;;;8.95;2.80;;;;;;;13.74;44.04;96704.88;10290395;28;20183;-61
2022/04/09 01:46:23;;;;;;;6.85;2.75;;;;;;;13.81;44.75;96712.53;10290562;28;20117;-62
2022/04/09 01:51:22;;;;;;;6.32;2.65;;;;;;;13.75;45.09;96716.19;10288886;28;20578;-61
2022/04/09 01:56:21;;;;;;;6.70;2.85;;;;;;;13.57;45.71;96743.66;10290473;28;20069;-61
2022/04/09 02:01:20;;;;;;;6.45;3.20;;;;;;;13.33;46.38;96734.75;10289307;28;20061;-61
2022/04/09 02:06:19;;;;;;;6.40;2.90;;;;;;;12.84;46.66;96671.84;10282657;28;20033;-61
2022/04/09 02:11:18;;;;;;;6.93;2.85;;;;;;;13.02;46.96;96730.38;10288671;28;20038;-61
2022/04/09 02:16:18;;;;;;;4.40;2.65;;;;;;;12.97;47.69;96752.22;10289267;28;20475;-61
2022/04/09 02:21:17;;;;;;;4.00;2.75;;;;;;;12.33;48.22;96681.88;10289286;28;20112;-61
2022/04/09 02:26:16;;;;;;;4.28;2.53;;;;;;;12.67;48.30;96755.59;10290090;28;20057;-61
2022/04/09 02:31:17;;;;;;;6.13;2.33;;;;;;;12.54;49.08;96741.19;10289017;28;20065;-62
2022/04/09 02:36:16;;;;;;;5.03;2.88;;;;;;;12.37;50.02;96719.91;10282783;28;20645;-61
2022/04/09 02:41:15;;;;;;;5.88;2.83;;;;;;;12.19;50.42;96727.25;10287822;28;20507;-61
2022/04/09 02:46:15;;;;;;;7.00;2.90;;;;;;;10.75;51.31;96523.53;10288799;28;20045;-61
2022/04/09 02:51:14;;;;;;;4.57;2.72;;;;;;;11.45;51.47;96651.00;10288710;28;20084;-61
2022/04/09 02:56:13;;;;;;;6.07;2.67;;;;;;;11.91;52.35;96726.19;10289049;28;20041;-61
2022/04/09 03:01:12;;;;;;;3.70;2.70;;;;;;;11.14;52.17;96609.25;10289966;28;20483;-61
2022/04/09 03:06:11;;;;;;;3.90;2.45;;;;;;;11.52;53.00;96671.63;10294709;28;20488;-61
2022/04/09 03:11:10;;;;;;;8.05;2.28;;;;;;;11.94;52.35;96684.53;10289576;28;20056;-61
2022/04/09 03:16:09;;;;;;;5.75;2.60;;;;;;;12.08;51.70;96680.69;10295847;28;20034;-61
2022/04/09 03:21:08;;;;;;;4.53;2.70;;;;;;;11.92;51.75;96671.56;10295644;28;20601;-61
2022/04/09 03:26:07;;;;;;;6.50;3.70;;;;;;;11.92;51.43;96679.34;10295318;28;20538;-61
2022/04/09 03:31:09;;;;;;;9.50;3.65;;;;;;;11.94;51.71;96654.19;10295051;28;20073;-61
2022/04/09 03:36:08;;;;;;;8.95;3.40;;;;;;;12.07;51.05;96663.41;10295622;28;20065;-61
2022/04/09 03:41:07;;;;;;;7.93;3.22;;;;;;;11.89;50.86;96636.09;10287856;28;20046;-62
2022/04/09 03:46:06;;;;;;;5.07;2.30;;;;;;;12.16;50.39;96661.44;10294953;28;20037;-61
2022/04/09 03:51:05;;;;;;;5.82;2.78;;;;;;;12.18;50.36;96655.34;10294408;28;20130;-61
2022/04/09 03:56:05;;;;;;;5.43;2.20;;;;;;;12.08;50.64;96625.25;10294625;28;20125;-61
2022/04/09 04:01:04;;;;;;;5.47;2.50;;;;;;;11.66;50.25;96560.41;10284190;28;20148;-61
2022/04/09 04:06:03;;;;;;;5.50;2.47;;;;;;;11.63;50.81;96581.28;10293715;28;20069;-61
2022/04/09 04:11:02;;;;;;;9.15;2.72;;;;;;;12.09;50.69;96637.38;10293441;28;20452;-61
2022/04/09 04:16:03;;;;;;;9.35;4.40;;;;;;;11.51;51.60;96597.19;10293130;28;20062;-61
2022/04/09 04:21:02;;;;;;;7.60;3.83;;;;;;;11.54;51.49;96561.56;10293745;28;20076;-61
2022/04/09 04:26:02;;;;;;;;;;;;;;;12.03;51.79;96655.72;10293508;28;20069;-61
2022/04/09 04:31:01;;;;;;;19.00;9.00;;;;;;;12.05;52.01;96651.31;10293309;28;19949;-61
2022/04/09 04:36:00;;;;;;;20.60;7.47;;;;;;;11.47;51.53;96547.03;10288416;28;20353;-61
2022/04/09 04:41:00;;;;;;;14.00;7.10;;;;;;;12.01;51.83;96618.47;10289449;28;20127;-61
2022/04/09 04:45:59;;;;;;;12.57;6.50;;;;;;;12.03;52.32;96622.75;10289443;28;20076;-61
2022/04/09 04:50:58;;;;;;;10.25;5.85;;;;;;;11.70;51.63;96562.06;10291270;28;20077;-61
2022/04/09 04:55:57;;;;;;;9.07;5.68;;;;;;;12.35;51.71;96648.88;10291888;28;20415;-61
2022/04/09 05:00:56;;;;;;;17.73;6.25;;;;;;;12.49;51.66;96636.38;10291284;28;20034;-61
2022/04/09 05:05:55;;;;;;;;;;;;;;;12.60;52.28;96639.53;10292543;28;20500;-61
2022/04/09 05:10:54;;;;;;;9.93;5.90;;;;;;;12.73;51.97;96638.28;10291406;28;20375;-61
2022/04/09 05:15:53;;;;;;;12.32;5.03;;;;;;;11.86;51.99;96475.00;10290959;28;20034;-61
2022/04/09 05:20:52;;;;;;;11.95;5.00;;;;;;;13.05;51.30;96644.38;10291273;28;20038;-62
2022/04/09 05:25:51;;;;;;;8.95;4.95;;;;;;;13.29;50.73;96645.38;10290810;28;20494;-61
2022/04/09 05:30:50;;;;;;;11.10;5.20;;;;;;;13.58;50.21;96641.06;10290698;28;20072;-61
2022/04/09 05:35:49;;;;;;;11.57;6.65;;;;;;;13.53;50.10;96581.25;10291146;28;20760;-62
2022/04/09 05:40:49;;;;;;;13.93;6.57;;;;;;;14.12;49.66;96626.31;10289709;28;20488;-62
2022/04/09 05:45:48;;;;;;;10.13;5.43;;;;;;;14.29;48.62;96584.88;10289850;28;20518;-61
2022/04/09 05:50:46;;;;;;;8.20;4.57;;;;;;;14.93;46.74;96615.69;10290699;28;20590;-62
2022/04/09 05:55:47;;;;;;;7.07;2.80;;;;;;;14.96;45.80;96554.66;10289614;28;20256;-62
2022/04/09 06:00:46;;;;;;;5.93;2.53;;;;;;;15.56;43.41;96570.63;10289517;28;20169;-62
2022/04/09 06:05:45;;;;;;;5.75;2.33;;;;;;;16.01;42.84;96601.94;10289734;28;20048;-62
2022/04/09 06:10:43;;;;;;;;;;;;;;;16.42;41.84;96608.97;10289925;28;20072;-62
2022/04/09 06:15:42;;;;;;;3.83;2.03;;;;;;;16.27;40.81;96545.88;10288692;28;19915;-62
2022/04/09 06:20:41;;;;;;;4.72;1.92;;;;;;;16.59;39.86;96555.88;10304524;28;20057;-62
2022/04/09 06:25:41;;;;;;;4.30;2.10;;;;;;;17.18;39.24;96596.06;10288829;28;20139;-62
2022/04/09 06:30:41;;;;;;;4.93;1.88;;;;;;;17.36;38.28;96592.59;10288971;28;20515;-62
2022/04/09 06:35:40;;;;;;;5.63;2.10;;;;;;;17.70;38.39;96578.69;10290517;28;20061;-62
2022/04/09 06:40:39;;;;;;;;;;;;;;;17.84;37.71;96580.69;10294350;28;20022;-62
2022/04/09 06:45:38;;;;;;;4.97;1.83;;;;;;;18.01;37.39;96577.25;10287729;28;19909;-62
2022/04/09 06:50:37;;;;;;;4.55;2.20;;;;;;;17.94;37.29;96539.09;10293011;28;20451;-62
2022/04/09 06:55:36;;;;;;;;;;;;;;;18.25;36.89;96559.41;10293797;28;20072;-62
2022/04/09 07:00:35;;;;;;;5.85;1.75;;;;;;;18.23;36.61;96515.78;10293320;28;20344;-62
2022/04/09 07:05:34;;;;;;;;;;;;;;;18.65;35.41;96567.03;10293134;28;20066;-62
2022/04/09 07:10:37;;;;;;;5.97;1.93;;;;;;;18.82;35.48;96549.44;10292698;28;19959;-62
2022/04/09 07:15:36;;;;;;;2.60;1.40;;;;;;;19.14;34.19;96557.38;10286624;28;20562;-63
2022/04/09 07:20:36;;;;;;;5.57;2.00;;;;;;;19.00;34.16;96487.16;10295700;28;20484;-62
2022/04/09 07:25:36;;;;;;;3.35;1.70;;;;;;;19.62;32.99;96552.16;10296024;28;20068;-62
2022/04/09 07:30:35;;;;;;;3.88;1.95;;;;;;;19.92;33.60;96539.00;10295096;28;20057;-63
2022/04/09 07:35:35;;;;;;;7.18;2.00;;;;;;;19.56;32.58;96444.63;10295464;28;20061;-62
2022/04/09 07:40:36;;;;;;;3.00;1.70;;;;;;;19.70;32.05;96456.94;10294640;28;20129;-62
2022/04/09 07:45:35;;;;;;;6.50;1.90;;;;;;;20.22;31.33;96473.16;10294533;28;20072;-62
2022/04/09 07:50:34;;;;;;;2.85;1.90;;;;;;;20.25;31.62;96466.84;10288288;28;20538;-63
2022/04/09 07:55:33;;;;;;;3.78;1.73;;;;;;;20.86;30.93;96517.63;10294910;28;20475;-63
2022/04/09 08:00:33;;;;;;;5.70;2.20;;;;;;;21.10;30.17;96497.63;10294095;28;20801;-63
2022/04/09 08:05:32;;;;;;;6.30;2.30;;;;;;;21.38;29.47;96517.00;10294450;28;20069;-63
2022/04/09 08:10:31;;;;;;;5.55;1.90;;;;;;;21.55;29.37;96473.69;10293882;28;20105;-62
2022/04/09 08:15:30;;;;;;;6.85;2.78;;;;;;;21.77;29.00;96512.72;10293534;28;20065;-63
2022/04/09 08:20:30;;;;;;;6.18;2.53;;;;;;;22.05;29.57;96519.69;10285222;28;20056;-63
2022/04/09 08:25:28;;;;;;;5.70;2.00;;;;;;;22.18;28.81;96517.09;10293549;28;20061;-62
2022/04/09 08:30:29;;;;;;;7.18;2.08;;;;;;;22.37;28.86;96503.47;10293868;28;20092;-63
2022/04/09 08:35:28;;;;;;;4.90;2.03;;;;;;;22.29;27.69;96513.69;10292557;28;20065;-63
2022/04/09 08:40:27;;;;;;;8.98;2.42;;;;;;;22.22;28.62;96515.91;10292790;28;20125;-63
2022/04/09 08:45:25;;;;;;;6.32;2.28;;;;;;;22.00;28.16;96519.16;10292911;28;20037;-62
2022/04/09 08:50:25;;;;;;;6.35;1.98;;;;;;;21.40;28.47;96435.09;10285521;28;20046;-63
2022/04/09 08:55:24;;;;;;;3.40;1.70;;;;;;;21.92;28.48;96522.28;10292105;28;20073;-63
2022/04/09 09:00:23;;;;;;;5.70;1.90;;;;;;;22.26;28.82;96527.97;10292802;28;20072;-62
2022/04/09 09:05:37;;;;;;;5.45;1.80;;;;;;;22.48;27.46;96522.03;10292217;28;20026;-63
2022/04/09 09:10:37;;;;;;;7.82;1.80;;;;;;;21.63;29.10;96438.84;10291562;28;20062;-62
2022/04/09 09:15:53;;;;;;;5.22;1.95;;;;;;;21.55;30.18;96484.25;10291624;28;20546;-63
2022/04/09 09:20:58;;;;;;;3.10;1.60;;;;;;;21.83;30.48;96509.69;10284578;28;20506;-62
2022/04/09 09:26:00;;;;;;;4.78;1.70;;;;;;;21.91;29.27;96517.09;10289666;28;20079;-62
2022/04/09 09:31:00;;;;;;;3.20;1.85;;;;;;;22.01;29.03;96501.50;10291569;28;20065;-62
2022/04/09 09:36:02;;;;;;;4.15;1.75;;;;;;;22.48;28.38;96495.59;10291130;28;20152;-62
2022/04/09 09:41:03;;;;;;;5.45;2.08;;;;;;;22.30;28.41;96487.16;10290368;28;20476;-63
2022/04/09 09:46:02;;;;;;;5.88;1.80;;;;;;;22.09;28.34;96489.47;10290642;28;20068;-62
2022/04/09 09:51:02;;;;;;;4.72;2.00;;;;;;;22.23;29.18;96464.75;10283837;28;20085;-63
2022/04/09 09:56:02;;;;;;;5.32;2.13;;;;;;;22.60;29.06;96472.78;10290128;28;20478;-62
2022/04/09 10:01:01;;;;;;;4.00;2.25;;;;;;;22.95;27.61;96461.53;10289942;28;20073;-63
2022/04/09 10:06:03;;;;;;;5.43;1.70;;;;;;;23.07;27.41;96439.50;10290440;28;20034;-62
2022/04/09 10:11:02;;;;;;;37.53;27.27;;;;;;;23.16;25.86;96460.00;10288509;28;20072;-62
2022/04/09 10:16:01;;;;;;;19.90;14.27;;;;;;;23.17;26.20;96439.66;10289897;28;20076;-63
2022/04/09 10:21:02;;;;;;;34.20;30.58;;;;;;;23.01;26.67;96381.72;10282610;28;20069;-63
2022/04/09 10:26:02;;;;;;;15.00;7.50;;;;;;;23.32;27.19;96422.66;10289590;28;20066;-62
2022/04/09 10:31:01;;;;;;;13.00;4.68;;;;;;;23.58;28.48;96439.31;10288964;28;20061;-63
2022/04/09 10:36:04;;;;;;;7.95;3.10;;;;;;;23.46;27.34;96412.84;10289231;28;20041;-63
2022/04/09 10:41:03;;;;;;;9.38;2.20;;;;;;;23.36;28.04;96428.56;10289881;28;20065;-63
2022/04/09 10:46:15;;;;;;;6.35;2.75;;;;;;;23.23;27.64;96428.63;10288698;28;20030;-62
2022/04/09 10:51:15;;;;;;;4.15;1.92;;;;;;;23.28;27.25;96420.34;10282062;28;20478;-62
2022/04/09 10:56:24;;;;;;;6.90;2.80;;;;;;;23.39;28.10;96413.28;10288061;28;20097;-62
2022/04/09 11:07:00;;;;;;;4.47;1.90;;;;;;;23.48;24.37;96390.63;10288797;28;20105;-62
2022/04/09 11:12:02;;;;;;;11.30;7.78;;;;;;;23.50;23.93;96377.28;10288798;28;20065;-63
2022/04/09 11:17:13;;;;;;;6.47;2.97;;;;;;;23.34;24.39;96356.38;10288326;28;20073;-63
2022/04/09 11:22:12;;;;;;;4.65;1.90;;;;;;;23.66;24.85;96361.09;10283203;28;20061;-62
2022/04/09 11:27:11;;;;;;;4.95;1.92;;;;;;;24.10;24.81;96383.28;10295999;28;20033;-63
2022/04/09 11:32:18;;;;;;;5.82;2.25;;;;;;;24.06;24.96;96333.19;10295344;28;20061;-63
2022/04/09 11:37:18;;;;;;;4.82;1.80;;;;;;;24.53;23.42;96366.72;10295199;28;20068;-63
2022/04/09 11:42:17;;;;;;;9.68;2.38;;;;;;;24.73;23.30;96363.34;10294146;28;20131;-62
2022/04/09 11:47:24;;;;;;;3.45;1.63;;;;;;;24.18;24.57;96259.03;10294784;28;20076;-62
2022/04/09 11:52:27;;;;;;;5.40;1.63;;;;;;;24.47;24.53;96305.25;10294457;28;20088;-63
2022/04/09 11:57:26;;;;;;;4.50;1.60;;;;;;;24.85;24.10;96306.63;10294751;28;20072;-63
2022/04/09 12:02:26;;;;;;;9.00;1.90;;;;;;;24.62;21.46;96331.50;10290371;28;20141;-63
2022/04/09 12:07:28;;;;;;;3.67;2.05;;;;;;;24.71;22.75;96290.97;10294216;28;20065;-62
2022/04/09 12:12:27;;;;;;;7.43;2.05;;;;;;;25.02;22.06;96342.41;10293975;28;20077;-63
2022/04/09 12:17:34;;;;;;;6.53;2.38;;;;;;;25.01;22.48;96329.25;10293609;28;20069;-62
2022/04/09 12:22:33;;;;;;;8.48;3.50;;;;;;;24.93;21.77;96306.00;10293180;28;20073;-63
2022/04/09 12:27:46;;;;;;;9.38;6.05;;;;;;;25.01;22.71;96311.53;10293429;28;20472;-62
2022/04/09 12:32:45;;;;;;;8.65;4.90;;;;;;;24.96;23.03;96283.69;10292736;28;20069;-63
2022/04/09 12:37:50;;;;;;;6.30;3.38;;;;;;;25.33;23.15;96330.09;10292445;28;20069;-63
2022/04/09 12:42:49;;;;;;;10.55;5.28;;;;;;;25.31;22.33;96316.09;10292789;28;20069;-62
2022/04/09 12:47:58;;;;;;;19.77;12.70;;;;;;;25.13;21.46;96315.00;10292612;28;20384;-62
2022/04/09 12:53:01;;;;;;;;;;;;;;;25.12;22.06;96323.91;10292554;28;20081;-63
2022/04/09 12:58:01;;;;;;;13.10;9.07;;;;;;;24.57;21.24;96273.53;10291752;28;19960;-62
2022/04/09 13:03:01;;;;;;;10.43;4.55;;;;;;;24.93;22.62;96332.53;10292519;28;20057;-62
2022/04/09 13:08:00;;;;;;;12.10;4.30;;;;;;;24.98;23.11;96292.34;10292009;28;20072;-63
2022/04/09 13:12:59;;;;;;;11.20;6.40;;;;;;;24.89;21.13;96289.50;10291660;28;20030;-62
2022/04/09 13:17:57;;;;;;;5.35;3.28;;;;;;;25.23;22.96;96321.22;10291773;28;20076;-63
2022/04/09 13:22:56;;;;;;;15.10;3.50;;;;;;;25.30;22.26;96305.63;10291448;28;20025;-62
2022/04/09 13:27:56;;;;;;;12.88;8.77;;;;;;;25.47;21.22;96304.19;10291031;28;20026;-62
2022/04/09 13:32:56;;;;;;;21.85;11.68;;;;;;;25.44;21.42;96305.31;10291609;28;20102;-63
2022/04/09 13:37:55;;;;;;;6.38;3.30;;;;;;;25.48;20.21;96296.09;10290408;28;20069;-63
2022/04/09 13:42:55;;;;;;;8.23;6.53;;;;;;;25.36;21.91;96277.69;10290377;28;20065;-63
2022/04/09 13:47:54;;;;;;;6.85;5.15;;;;;;;25.43;20.76;96294.78;10290134;28;20488;-63
2022/04/09 13:52:52;;;;;;;7.85;3.72;;;;;;;25.55;20.88;96288.50;10290362;28;20518;-63
2022/04/09 13:57:51;;;;;;;6.18;3.22;;;;;;;25.28;20.80;96257.09;10289921;28;20040;-63
2022/04/09 14:02:50;;;;;;;5.28;3.70;;;;;;;25.50;21.69;96280.88;10290320;28;20137;-63
2022/04/09 14:07:49;;;;;;;7.35;2.00;;;;;;;25.29;21.38;96282.69;10289793;28;20069;-63
2022/04/09 14:12:48;;;;;;;3.80;2.00;;;;;;;25.22;21.66;96282.38;10289758;28;20026;-62
2022/04/09 14:17:47;;;;;;;5.72;2.10;;;;;;;25.18;21.23;96272.97;10288688;28;20040;-62
2022/04/09 14:22:46;;;;;;;8.05;2.17;;;;;;;25.07;21.73;96267.72;10289317;28;20029;-62
2022/04/09 14:27:45;;;;;;;5.32;1.70;;;;;;;24.96;21.00;96267.75;10288406;28;20065;-62
2022/04/09 14:32:44;;;;;;;7.00;2.75;;;;;;;25.04;21.53;96262.66;10286837;28;20484;-62
2022/04/09 14:37:44;;;;;;;6.82;2.60;;;;;;;24.97;20.96;96250.88;10287433;28;20030;-62
2022/04/09 14:42:43;;;;;;;5.95;2.72;;;;;;;24.93;22.29;96260.06;10286673;28;20084;-62
2022/04/09 14:47:43;;;;;;;6.25;2.60;;;;;;;24.86;21.32;96247.28;10289331;28;20038;-62
2022/04/09 14:52:43;;;;;;;23.52;11.80;;;;;;;24.45;21.00;96174.59;10288683;28;20082;-62
2022/04/09 14:57:42;;;;;;;16.25;11.23;;;;;;;24.94;21.31;96244.00;10291189;28;20065;-62
2022/04/09 15:02:42;;;;;;;14.75;10.88;;;;;;;25.01;21.45;96255.81;10297106;28;20026;-62
2022/04/09 15:07:41;;;;;;;4.90;3.33;;;;;;;24.54;21.39;96177.44;10296471;28;20058;-62
2022/04/09 15:12:40;;;;;;;40.95;36.50;;;;;;;24.82;20.40;96202.53;10296208;28;20077;-62
2022/04/09 15:17:39;;;;;;;8.60;2.80;;;;;;;24.95;21.55;96213.00;10296109;28;20069;-63
2022/04/09 15:22:38;;;;;;;10.02;6.53;;;;;;;24.98;21.42;96223.38;10295594;28;20065;-62
2022/04/09 15:27:37;;;;;;;7.32;3.65;;;;;;;24.55;21.61;96169.38;10295627;28;20072;-62
2022/04/09 15:32:37;;;;;;;9.02;4.55;;;;;;;24.57;21.86;96219.66;10295982;28;20029;-62
2022/04/09 15:37:37;;;;;;;7.20;4.78;;;;;;;24.26;21.00;96227.44;10295158;28;20080;-62
2022/04/09 15:42:39;;;;;;;9.45;2.55;;;;;;;24.10;22.29;96226.94;10294952;28;20073;-62
2022/04/09 15:47:38;;;;;;;8.65;4.90;;;;;;;23.75;22.11;96191.72;10295110;28;20081;-62
2022/04/09 15:52:37;;;;;;;4.28;3.15;;;;;;;23.55;22.13;96189.78;10294657;28;20477;-62
2022/04/09 15:57:37;;;;;;;6.28;2.00;;;;;;;23.32;22.04;96183.59;10294244;28;20080;-62
2022/04/09 16:02:38;;;;;;;4.55;2.33;;;;;;;23.46;21.90;96224.88;10294533;28;20073;-62
2022/04/09 16:07:38;;;;;;;27.55;13.88;;;;;;;23.35;22.14;96231.84;10293754;28;20077;-63
2022/04/09 16:12:37;;;;;;;14.80;7.45;;;;;;;23.22;22.51;96237.22;10293282;28;20172;-62
2022/04/09 16:17:37;;;;;;;34.15;22.40;;;;;;;22.67;22.78;96172.59;10293777;28;20070;-62
2022/04/09 16:22:37;;;;;;;27.50;16.10;;;;;;;22.79;22.70;96240.47;10294746;28;20073;-62
2022/04/09 16:27:36;;;;;;;16.10;9.70;;;;;;;22.30;22.65;96204.41;10293305;28;20107;-62
2022/04/09 16:32:35;;;;;;;31.00;21.30;;;;;;;22.12;23.25;96217.13;10293022;28;20065;-62
2022/04/09 16:37:34;;;;;;;21.75;12.50;;;;;;;21.89;23.48;96217.91;10293292;28;20076;-62
2022/04/09 16:42:33;;;;;;;12.73;6.72;;;;;;;21.51;23.80;96202.97;10292299;28;20076;-63
2022/04/09 16:47:32;;;;;;;14.73;9.02;;;;;;;21.43;24.33;96258.94;10292556;28;20029;-62
2022/04/09 16:52:31;;;;;;;10.10;6.25;;;;;;;21.16;25.04;96282.72;10292183;28;20042;-63
2022/04/09 16:57:30;;;;;;;40.33;30.15;;;;;;;20.84;25.49;96298.03;10292062;28;20113;-63
2022/04/09 17:02:29;;;;;;;15.25;9.85;;;;;;;20.51;25.18;96307.16;10291752;28;20561;-62
2022/04/09 17:07:28;;;;;;;33.25;22.92;;;;;;;19.97;25.12;96259.66;10292779;28;20034;-63
2022/04/09 17:12:27;;;;;;;36.55;27.75;;;;;;;20.04;24.65;96316.25;10291239;28;20065;-62
2022/04/09 17:17:26;;;;;;;24.45;14.20;;;;;;;19.83;24.84;96321.06;10291599;28;20040;-63
2022/04/09 17:22:25;;;;;;;34.17;19.88;;;;;;;19.57;25.65;96331.38;10291207;28;20097;-63
2022/04/09 17:27:24;;;;;;;36.08;23.05;;;;;;;19.05;26.67;96302.00;10262467;28;20419;-63
2022/04/09 17:32:25;;;;;;;165.10;121.18;;;;;;;18.93;27.12;96341.22;10290912;28;20028;-62
2022/04/09 17:37:24;;;;;;;50.72;38.60;;;;;;;18.65;27.15;96354.19;10290727;28;20073;-62
2022/04/09 17:42:23;;;;;;;30.95;17.63;;;;;;;18.37;27.05;96369.69;10290665;28;20444;-62
2022/04/09 17:47:23;;;;;;;40.97;29.80;;;;;;;18.13;26.85;96371.84;10289770;28;20825;-62
2022/04/09 17:52:22;;;;;;;27.17;17.15;;;;;;;17.28;26.21;96262.56;10290112;28;20077;-62
2022/04/09 17:57:23;;;;;;;;;;;;;;;17.68;28.12;96380.31;10283597;28;20033;-63
2022/04/09 18:02:22;;;;;;;18.50;9.27;;;;;;;17.23;29.02;96389.59;10289894;28;19957;-63
2022/04/09 18:07:21;;;;;;;20.63;9.43;;;;;;;15.85;29.17;96213.72;10290314;28;20542;-62
2022/04/09 18:12:19;;;;;;;;;;;;;;;16.84;29.96;96407.19;10289278;28;20026;-63
2022/04/09 18:17:18;;;;;;;23.52;15.48;;;;;;;16.68;30.05;96424.50;10289825;28;20398;-63
2022/04/09 18:22:18;;;;;;;10.52;5.72;;;;;;;16.47;30.92;96421.13;10288579;28;20135;-63
2022/04/09 18:27:17;;;;;;;14.40;8.00;;;;;;;16.33;30.98;96424.34;10282942;28;20516;-62
2022/04/09 18:32:16;;;;;;;;;;;;;;;16.13;31.05;96421.78;10292055;28;20164;-62
2022/04/09 18:37:15;;;;;;;27.27;17.08;;;;;;;16.07;31.19;96431.59;10297696;28;20350;-63
2022/04/09 18:42:15;;;;;;;22.75;16.98;;;;;;;15.83;31.50;96415.22;10297075;28;20511;-63
2022/04/09 18:47:14;;;;;;;15.82;11.27;;;;;;;15.02;32.01;96303.63;10296225;28;20073;-62
2022/04/09 18:52:13;;;;;;;;;;;;;;;15.64;32.24;96429.94;10297046;28;20217;-62
2022/04/09 18:57:12;;;;;;;15.55;8.25;;;;;;;15.38;32.90;96428.44;10296507;28;19920;-62
2022/04/09 19:02:11;;;;;;;28.65;18.30;;;;;;;15.32;33.59;96433.91;10296686;28;20092;-62
2022/04/09 19:07:10;;;;;;;20.75;14.77;;;;;;;14.88;33.79;96397.38;10296340;28;20073;-62
2022/04/09 19:12:10;;;;;;;14.15;7.93;;;;;;;14.84;35.22;96433.22;10296612;28;20479;-62
2022/04/09 19:17:09;;;;;;;;;;;;;;;14.87;36.29;96455.75;10289928;28;20073;-63
2022/04/09 19:22:07;;;;;;;13.13;8.50;;;;;;;14.69;36.23;96465.13;10295022;28;19913;-62
2022/04/09 19:27:07;;;;;;;15.68;6.03;;;;;;;14.10;37.39;96403.78;10294196;28;20134;-62
2022/04/09 19:32:07;;;;;;;19.05;5.93;;;;;;;13.98;38.31;96411.16;10294922;28;20573;-62
2022/04/09 19:37:06;;;;;;;15.93;9.00;;;;;;;13.91;38.72;96469.66;10295391;28;20068;-62
2022/04/09 19:42:05;;;;;;;10.98;5.32;;;;;;;13.24;38.77;96417.19;10293984;28;20049;-62
2022/04/09 19:47:04;;;;;;;12.43;6.88;;;;;;;13.11;38.77;96421.94;10287995;28;20129;-62
2022/04/09 19:52:03;;;;;;;;;;;;;;;13.45;38.15;96479.00;10294926;28;20108;-62
2022/04/09 19:57:02;;;;;;;14.20;7.80;;;;;;;13.02;38.66;96422.22;10294728;28;19909;-62
2022/04/09 20:02:01;;;;;;;12.65;8.30;;;;;;;13.44;38.73;96490.31;10293441;28;20069;-62
2022/04/09 20:07:00;;;;;;;14.23;6.50;;;;;;;13.37;38.81;96496.63;10293992;28;20446;-62
2022/04/09 20:11:59;;;;;;;9.73;5.38;;;;;;;12.96;38.69;96454.53;10293948;28;20068;-62
2022/04/09 20:16:58;;;;;;;9.38;4.93;;;;;;;13.18;38.70;96506.78;10286940;28;20033;-63
2022/04/09 20:21:59;;;;;;;9.15;4.82;;;;;;;12.70;38.32;96443.16;10292143;28;20057;-63
2022/04/09 20:27:00;;;;;;;11.98;5.15;;;;;;;13.01;38.74;96498.66;10293483;28;20076;-63
2022/04/09 20:31:59;;;;;;;12.63;5.90;;;;;;;13.04;38.54;96503.75;10293099;28;20061;-63
2022/04/09 20:36:58;;;;;;;8.80;4.90;;;;;;;12.55;38.18;96451.44;10292742;28;20026;-63
2022/04/09 20:41:58;;;;;;;13.85;5.85;;;;;;;13.01;39.03;96515.13;10293166;28;20070;-63
2022/04/09 20:46:57;;;;;;;17.23;8.80;;;;;;;12.92;39.05;96518.00;10285558;28;20301;-63
2022/04/09 20:51:56;;;;;;;13.80;7.40;;;;;;;12.76;39.75;96519.38;10292543;28;20081;-63
2022/04/09 20:56:55;;;;;;;10.48;5.55;;;;;;;12.68;39.35;96517.00;10292656;28;20066;-63
2022/04/09 21:01:54;;;;;;;14.68;5.55;;;;;;;12.56;39.56;96518.22;10291791;28;20121;-63
2022/04/09 21:06:54;;;;;;;12.55;4.85;;;;;;;12.39;39.24;96491.78;10292451;28;20030;-63
2022/04/09 21:11:53;;;;;;;10.40;4.90;;;;;;;12.17;40.00;96460.31;10291865;28;20069;-63
2022/04/09 21:16:52;;;;;;;11.68;5.50;;;;;;;12.47;39.80;96516.72;10284997;28;20042;-63
2022/04/09 21:21:52;;;;;;;13.40;7.03;;;;;;;12.37;40.03;96512.69;10291659;28;20070;-63
2022/04/09 21:26:51;;;;;;;16.25;5.85;;;;;;;11.91;40.08;96463.66;10291041;28;20073;-63
2022/04/09 21:31:51;;;;;;;12.52;5.20;;;;;;;11.82;40.88;96451.75;10291563;28;20026;-63
2022/04/09 21:36:50;;;;;;;14.05;6.55;;;;;;;12.14;41.98;96509.81;10291172;28;20073;-63
2022/04/09 21:41:49;;;;;;;10.70;5.20;;;;;;;12.01;42.09;96509.28;10290556;28;20077;-63
2022/04/09 21:46:48;;;;;;;12.88;4.47;;;;;;;11.97;42.04;96518.06;10283851;28;20079;-63
2022/04/09 21:51:47;;;;;;;14.10;5.68;;;;;;;11.90;43.31;96517.38;10290389;28;20120;-63
2022/04/09 21:56:46;;;;;;;14.55;5.90;;;;;;;11.77;43.89;96522.03;10290118;28;20092;-63
2022/04/09 22:01:45;;;;;;;13.00;5.28;;;;;;;11.15;43.82;96447.38;10290053;28;20025;-63
2022/04/09 22:06:44;;;;;;;13.52;6.03;;;;;;;10.96;44.27;96426.22;10287786;28;20479;-63
2022/04/09 22:11:44;;;;;;;13.32;7.05;;;;;;;11.31;44.38;96525.75;10289790;28;20073;-63
2022/04/09 22:16:44;;;;;;;12.93;7.30;;;;;;;11.07;45.53;96519.41;10289326;28;20073;-63
2022/04/09 22:21:43;;;;;;;16.45;9.00;;;;;;;10.56;47.57;96491.91;10280517;28;20120;-63
2022/04/09 22:26:42;;;;;;;17.00;7.22;;;;;;;10.52;46.57;96482.53;10287192;28;20029;-63
2022/04/09 22:31:41;;;;;;;16.55;8.52;;;;;;;10.37;47.30;96542.47;10288066;28;20468;-63
2022/04/09 22:36:40;;;;;;;13.13;6.35;;;;;;;9.78;48.15;96517.63;10289135;28;20525;-63
2022/04/09 22:41:39;;;;;;;16.75;6.50;;;;;;;9.41;48.53;96496.69;10288532;28;20450;-63
2022/04/09 22:46:38;;;;;;;14.27;6.82;;;;;;;9.67;48.64;96535.09;10289453;28;20073;-63
2022/04/09 22:51:37;;;;;;;16.08;8.13;;;;;;;9.96;48.17;96591.63;10281552;28;20104;-64
2022/04/09 22:56:36;;;;;;;21.55;9.35;;;;;;;8.83;48.81;96405.31;10288536;28;20491;-63
2022/04/09 23:01:35;;;;;;;20.63;10.10;;;;;;;9.76;48.64;96568.63;10288967;28;20029;-63
2022/04/09 23:06:34;;;;;;;20.67;9.60;;;;;;;9.79;48.93;96578.06;10288523;28;20491;-63
2022/04/09 23:11:33;;;;;;;17.13;7.95;;;;;;;9.53;48.86;96534.47;10288379;28;20100;-63
2022/04/09 23:16:32;;;;;;;18.17;8.40;;;;;;;9.55;49.34;96530.97;10288799;28;20066;-63